Ridgewood, California
Current Conditions -  °F | °C
As of 10:55 PM on Thursday 27 Nov 2014 (Local Time) from KTRK Reporting Station
Clear Clear  
Wind Chill: 44°   Ceiling: Unl
Heat Index: 48°   Visibility: 10mi
Dew Point: 14°   Wind: 10mph
Humidity: 25%   Direction: 150°SSE
Pressure: 30.17"   Gusts: 20mph
Location:  39.2392°N, 120.102°W
Report Text: KTRK 280655Z AUTO 15009G17KT 120V180 10SM CLR 09/M10 A3017 RMK AO2
Loading
Personal Weather Stations






























Interactive Weather Map New forecast layout! Learn more

10-Day Weather Forecast

Advertisements
Track Severe Weather on mobile